sensor_id;sensor_type;location;lat;lon;timestamp;pressure;altitude;pressure_sealevel;temperature;humidity
64053;BME280;50299;49.524;8.536;2023-04-08T00:01:40;100902.88;;;6.13;100.00
64053;BME280;50299;49.524;8.536;2023-04-08T00:04:07;100900.88;;;6.19;99.25
64053;BME280;50299;49.524;8.536;2023-04-08T00:06:35;100899.19;;;6.28;99.47
64053;BME280;50299;49.524;8.536;2023-04-08T00:09:02;100893.66;;;6.57;100.00
64053;BME280;50299;49.524;8.536;2023-04-08T00:11:28;100901.50;;;6.93;100.00
64053;BME280;50299;49.524;8.536;2023-04-08T00:13:55;100897.00;;;7.02;100.00
64053;BME280;50299;49.524;8.536;2023-04-08T00:16:22;100901.00;;;6.67;99.28
64053;BME280;50299;49.524;8.536;2023-04-08T00:18:48;100902.53;;;6.49;97.73
64053;BME280;50299;49.524;8.536;2023-04-08T00:21:15;100903.56;;;6.29;96.98
64053;BME280;50299;49.524;8.536;2023-04-08T00:23:43;100904.88;;;6.36;98.41
64053;BME280;50299;49.524;8.536;2023-04-08T00:26:09;100911.03;;;6.52;100.00
64053;BME280;50299;49.524;8.536;2023-04-08T00:28:35;100912.44;;;6.15;97.50
64053;BME280;50299;49.524;8.536;2023-04-08T00:31:02;100908.19;;;5.99;96.81
64053;BME280;50299;49.524;8.536;2023-04-08T00:33:29;100907.91;;;6.01;97.79
64053;BME280;50299;49.524;8.536;2023-04-08T00:35:55;100905.78;;;6.27;99.85
64053;BME280;50299;49.524;8.536;2023-04-08T00:38:21;100910.09;;;6.38;100.00
64053;BME280;50299;49.524;8.536;2023-04-08T00:40:48;100911.28;;;6.56;100.00
64053;BME280;50299;49.524;8.536;2023-04-08T00:43:14;100906.81;;;6.60;100.00
64053;BME280;50299;49.524;8.536;2023-04-08T00:45:41;100909.78;;;6.39;99.40
64053;BME280;50299;49.524;8.536;2023-04-08T00:48:08;100908.91;;;6.44;99.81
64053;BME280;50299;49.524;8.536;2023-04-08T00:50:34;100915.84;;;6.36;99.53
64053;BME280;50299;49.524;8.536;2023-04-08T00:53:01;100907.75;;;6.21;98.75
64053;BME280;50299;49.524;8.536;2023-04-08T00:55:27;100915.91;;;6.31;99.41
64053;BME280;50299;49.524;8.536;2023-04-08T00:57:55;100921.41;;;6.31;99.67
64053;BME280;50299;49.524;8.536;2023-04-08T01:00:21;100911.59;;;6.25;99.02
64053;BME280;50299;49.524;8.536;2023-04-08T01:02:58;100912.97;;;6.23;98.92
64053;BME280;50299;49.524;8.536;2023-04-08T01:05:52;100911.13;;;6.08;98.46
64053;BME280;50299;49.524;8.536;2023-04-08T01:08:22;100918.31;;;6.04;98.49
64053;BME280;50299;49.524;8.536;2023-04-08T01:10:52;100911.03;;;6.23;100.00
64053;BME280;50299;49.524;8.536;2023-04-08T01:13:25;100914.31;;;6.20;100.00
64053;BME280;50299;49.524;8.536;2023-04-08T01:15:53;100913.84;;;6.13;99.85
64053;BME280;50299;49.524;8.536;2023-04-08T01:18:21;100909.34;;;6.27;100.00
64053;BME280;50299;49.524;8.536;2023-04-08T01:20:48;100908.03;;;6.49;100.00
64053;BME280;50299;49.524;8.536;2023-04-08T01:23:34;100914.41;;;6.44;100.00
64053;BME280;50299;49.524;8.536;2023-04-08T01:26:04;100916.78;;;6.22;98.16
64053;BME280;50299;49.524;8.536;2023-04-08T01:28:31;100905.19;;;5.96;96.72
64053;BME280;50299;49.524;8.536;2023-04-08T01:30:59;100911.72;;;6.05;98.55
64053;BME280;50299;49.524;8.536;2023-04-08T01:33:27;100910.09;;;6.38;100.00
64053;BME280;50299;49.524;8.536;2023-04-08T01:35:56;100904.16;;;6.55;100.00
64053;BME280;50299;49.524;8.536;2023-04-08T01:38:24;100902.47;;;6.30;99.09
64053;BME280;50299;49.524;8.536;2023-04-08T01:40:53;100912.34;;;6.31;99.40
64053;BME280;50299;49.524;8.536;2023-04-08T01:43:23;100906.34;;;6.53;100.00
64053;BME280;50299;49.524;8.536;2023-04-08T01:45:51;100912.22;;;6.70;100.00
64053;BME280;50299;49.524;8.536;2023-04-08T01:48:23;100909.56;;;6.60;100.00
64053;BME280;50299;49.524;8.536;2023-04-08T01:50:50;100903.75;;;6.67;100.00
64053;BME280;50299;49.524;8.536;2023-04-08T01:53:17;100899.91;;;6.86;100.00
64053;BME280;50299;49.524;8.536;2023-04-08T01:55:44;100896.75;;;6.74;100.00
64053;BME280;50299;49.524;8.536;2023-04-08T01:58:15;100903.84;;;6.80;100.00
64053;BME280;50299;49.524;8.536;2023-04-08T02:00:43;100902.72;;;7.05;100.00
64053;BME280;50299;49.524;8.536;2023-04-08T02:03:11;100904.25;;;7.17;100.00
64053;BME280;50299;49.524;8.536;2023-04-08T02:05:39;100903.28;;;7.45;100.00
64053;BME280;50299;49.524;8.536;2023-04-08T02:08:05;100900.41;;;7.55;100.00
64053;BME280;50299;49.524;8.536;2023-04-08T02:10:32;100907.00;;;7.35;100.00
64053;BME280;50299;49.524;8.536;2023-04-08T02:12:58;100912.56;;;6.87;97.32
64053;BME280;50299;49.524;8.536;2023-04-08T02:15:26;100910.63;;;6.64;97.58
64053;BME280;50299;49.524;8.536;2023-04-08T02:17:55;100908.03;;;6.49;97.72
64053;BME280;50299;49.524;8.536;2023-04-08T02:20:47;100908.47;;;6.32;97.98
64053;BME280;50299;49.524;8.536;2023-04-08T02:23:20;100913.25;;;6.16;97.21
64053;BME280;50299;49.524;8.536;2023-04-08T02:25:48;100916.78;;;5.87;95.83
64053;BME280;50299;49.524;8.536;2023-04-08T02:28:17;100910.44;;;5.53;95.87
64053;BME280;50299;49.524;8.536;2023-04-08T02:30:51;100907.66;;;5.58;97.44
64053;BME280;50299;49.524;8.536;2023-04-08T02:33:20;100915.38;;;5.51;97.45
64053;BME280;50299;49.524;8.536;2023-04-08T02:35:48;100916.84;;;5.38;96.83
64053;BME280;50299;49.524;8.536;2023-04-08T02:38:15;100913.47;;;5.02;95.70
64053;BME280;50299;49.524;8.536;2023-04-08T02:40:42;100910.72;;;5.02;97.17
64053;BME280;50299;49.524;8.536;2023-04-08T02:43:08;100908.00;;;4.97;97.45
64053;BME280;50299;49.524;8.536;2023-04-08T02:45:40;100904.94;;;5.08;98.78
64053;BME280;50299;49.524;8.536;2023-04-08T02:48:07;100909.25;;;5.25;99.21
64053;BME280;50299;49.524;8.536;2023-04-08T02:50:34;100914.34;;;5.41;100.00
64053;BME280;50299;49.524;8.536;2023-04-08T02:53:00;100904.00;;;5.73;100.00
64053;BME280;50299;49.524;8.536;2023-04-08T02:55:27;100905.94;;;5.67;100.00
64053;BME280;50299;49.524;8.536;2023-04-08T02:57:53;100918.50;;;5.78;100.00
64053;BME280;50299;49.524;8.536;2023-04-08T03:00:19;100914.69;;;5.74;100.00
64053;BME280;50299;49.524;8.536;2023-04-08T03:02:46;100908.78;;;5.57;98.82
64053;BME280;50299;49.524;8.536;2023-04-08T03:05:13;100910.38;;;5.63;99.71
64053;BME280;50299;49.524;8.536;2023-04-08T03:07:41;100909.25;;;5.69;99.95
64053;BME280;50299;49.524;8.536;2023-04-08T03:10:08;100911.63;;;5.81;100.00
64053;BME280;50299;49.524;8.536;2023-04-08T03:12:34;100918.25;;;5.75;100.00
64053;BME280;50299;49.524;8.536;2023-04-08T03:15:01;100912.41;;;5.86;100.00
64053;BME280;50299;49.524;8.536;2023-04-08T03:17:29;100916.47;;;5.94;100.00
64053;BME280;50299;49.524;8.536;2023-04-08T03:19:57;100917.06;;;6.20;100.00
64053;BME280;50299;49.524;8.536;2023-04-08T03:22:24;100922.38;;;6.46;100.00
64053;BME280;50299;49.524;8.536;2023-04-08T03:24:50;100918.22;;;6.48;100.00
64053;BME280;50299;49.524;8.536;2023-04-08T03:27:17;100920.09;;;6.24;98.93
64053;BME280;50299;49.524;8.536;2023-04-08T03:29:43;100920.91;;;6.19;100.00
64053;BME280;50299;49.524;8.536;2023-04-08T03:32:12;100921.19;;;6.52;100.00
64053;BME280;50299;49.524;8.536;2023-04-08T03:34:38;100920.03;;;6.82;100.00
64053;BME280;50299;49.524;8.536;2023-04-08T03:37:06;100924.56;;;6.97;100.00
64053;BME280;50299;49.524;8.536;2023-04-08T03:39:33;100918.25;;;7.15;100.00
64053;BME280;50299;49.524;8.536;2023-04-08T03:41:59;100916.63;;;7.14;100.00
64053;BME280;50299;49.524;8.536;2023-04-08T03:44:26;100925.59;;;7.01;100.00
64053;BME280;50299;49.524;8.536;2023-04-08T03:46:53;100921.41;;;6.84;100.00
64053;BME280;50299;49.524;8.536;2023-04-08T03:49:19;100922.56;;;6.54;97.64
64053;BME280;50299;49.524;8.536;2023-04-08T03:51:46;100926.69;;;6.52;99.76
64053;BME280;50299;49.524;8.536;2023-04-08T03:54:12;100921.91;;;6.62;100.00
64053;BME280;50299;49.524;8.536;2023-04-08T03:56:39;100923.59;;;6.82;100.00
64053;BME280;50299;49.524;8.536;2023-04-08T03:59:05;100924.72;;;7.05;100.00
64053;BME280;50299;49.524;8.536;2023-04-08T04:01:31;100927.59;;;6.71;99.16
64053;BME280;50299;49.524;8.536;2023-04-08T04:03:58;100929.13;;;6.53;99.14
64053;BME280;50299;49.524;8.536;2023-04-08T04:06:24;100936.03;;;6.16;96.68
64053;BME280;50299;49.524;8.536;2023-04-08T04:08:54;100933.75;;;6.29;100.00
64053;BME280;50299;49.524;8.536;2023-04-08T04:11:20;100933.19;;;6.32;100.00
64053;BME280;50299;49.524;8.536;2023-04-08T04:13:48;100935.94;;;5.98;96.85
64053;BME280;50299;49.524;8.536;2023-04-08T04:16:14;100937.44;;;6.14;100.00
64053;BME280;50299;49.524;8.536;2023-04-08T04:18:41;100938.59;;;6.42;100.00
64053;BME280;50299;49.524;8.536;2023-04-08T04:21:10;100944.47;;;6.59;100.00
64053;BME280;50299;49.524;8.536;2023-04-08T04:23:37;100946.78;;;6.47;100.00
64053;BME280;50299;49.524;8.536;2023-04-08T04:26:07;100943.34;;;6.31;96.68
64053;BME280;50299;49.524;8.536;2023-04-08T04:28:36;100945.38;;;6.15;97.21
64053;BME280;50299;49.524;8.536;2023-04-08T04:31:03;100945.00;;;6.32;100.00
64053;BME280;50299;49.524;8.536;2023-04-08T04:33:30;100947.88;;;6.12;95.53
64053;BME280;50299;49.524;8.536;2023-04-08T04:35:56;100946.88;;;6.37;100.00
64053;BME280;50299;49.524;8.536;2023-04-08T04:38:23;100951.59;;;6.31;96.13
64053;BME280;50299;49.524;8.536;2023-04-08T04:40:49;100944.50;;;6.20;97.80
64053;BME280;50299;49.524;8.536;2023-04-08T04:43:16;100952.84;;;6.10;96.35
64053;BME280;50299;49.524;8.536;2023-04-08T04:45:42;100947.38;;;6.10;97.67
64053;BME280;50299;49.524;8.536;2023-04-08T04:48:10;100951.09;;;6.24;98.92
64053;BME280;50299;49.524;8.536;2023-04-08T04:50:36;100957.03;;;6.02;95.32
64053;BME280;50299;49.524;8.536;2023-04-08T04:53:02;100967.88;;;6.23;98.94
64053;BME280;50299;49.524;8.536;2023-04-08T04:55:29;100955.47;;;6.30;98.46
64053;BME280;50299;49.524;8.536;2023-04-08T04:57:55;100957.78;;;6.47;95.44
64053;BME280;50299;49.524;8.536;2023-04-08T05:00:22;100960.13;;;6.59;89.28
64053;BME280;50299;49.524;8.536;2023-04-08T05:02:48;100967.94;;;6.47;86.27
64053;BME280;50299;49.524;8.536;2023-04-08T05:05:18;100962.81;;;6.01;80.49
64053;BME280;50299;49.524;8.536;2023-04-08T05:07:44;100971.72;;;6.16;82.13
64053;BME280;50299;49.524;8.536;2023-04-08T05:10:10;100970.50;;;5.99;76.54
64053;BME280;50299;49.524;8.536;2023-04-08T05:12:37;100965.81;;;5.60;77.17
64053;BME280;50299;49.524;8.536;2023-04-08T05:15:04;100976.81;;;5.50;75.18
64053;BME280;50299;49.524;8.536;2023-04-08T05:17:31;100975.09;;;5.69;80.85
64053;BME280;50299;49.524;8.536;2023-04-08T05:19:58;100977.38;;;5.47;80.86
64053;BME280;50299;49.524;8.536;2023-04-08T05:22:24;100981.78;;;5.42;76.93
64053;BME280;50299;49.524;8.536;2023-04-08T05:24:51;100981.28;;;5.35;77.80
64053;BME280;50299;49.524;8.536;2023-04-08T05:27:17;100979.91;;;5.43;83.20
64053;BME280;50299;49.524;8.536;2023-04-08T05:29:43;100985.75;;;5.16;76.58
64053;BME280;50299;49.524;8.536;2023-04-08T05:32:10;100986.75;;;5.40;78.54
64053;BME280;50299;49.524;8.536;2023-04-08T05:34:36;100979.72;;;5.74;82.37
64053;BME280;50299;49.524;8.536;2023-04-08T05:37:03;100992.03;;;5.81;75.26
64053;BME280;50299;49.524;8.536;2023-04-08T05:39:29;100984.81;;;5.90;78.21
64053;BME280;50299;49.524;8.536;2023-04-08T05:41:56;100980.75;;;6.27;79.34
64053;BME280;50299;49.524;8.536;2023-04-08T05:44:22;100993.72;;;6.51;79.74
64053;BME280;50299;49.524;8.536;2023-04-08T05:46:48;100986.56;;;5.76;70.03
64053;BME280;50299;49.524;8.536;2023-04-08T05:49:15;100986.91;;;5.64;76.68
64053;BME280;50299;49.524;8.536;2023-04-08T05:51:42;100992.84;;;5.82;73.00
64053;BME280;50299;49.524;8.536;2023-04-08T05:54:09;100992.13;;;5.61;77.43
64053;BME280;50299;49.524;8.536;2023-04-08T05:56:35;100991.75;;;5.28;75.30
64053;BME280;50299;49.524;8.536;2023-04-08T05:59:01;101002.06;;;5.52;77.02
64053;BME280;50299;49.524;8.536;2023-04-08T06:01:28;101006.56;;;5.82;80.72
64053;BME280;50299;49.524;8.536;2023-04-08T06:03:54;101014.09;;;6.05;74.75
64053;BME280;50299;49.524;8.536;2023-04-08T06:06:22;101010.13;;;6.22;77.22
64053;BME280;50299;49.524;8.536;2023-04-08T06:08:49;101013.06;;;5.96;74.68
64053;BME280;50299;49.524;8.536;2023-04-08T06:11:16;101012.56;;;6.28;79.55
64053;BME280;50299;49.524;8.536;2023-04-08T06:13:42;101019.34;;;6.02;75.25
64053;BME280;50299;49.524;8.536;2023-04-08T06:16:18;101015.66;;;6.16;74.51
64053;BME280;50299;49.524;8.536;2023-04-08T06:18:46;101025.88;;;6.06;72.13
64053;BME280;50299;49.524;8.536;2023-04-08T06:21:13;101026.50;;;5.98;69.98
64053;BME280;50299;49.524;8.536;2023-04-08T06:23:40;101037.38;;;6.13;74.64
64053;BME280;50299;49.524;8.536;2023-04-08T06:26:06;101028.75;;;5.85;76.07
64053;BME280;50299;49.524;8.536;2023-04-08T06:28:33;101030.47;;;6.15;77.19
64053;BME280;50299;49.524;8.536;2023-04-08T06:30:59;101038.16;;;6.19;74.37
64053;BME280;50299;49.524;8.536;2023-04-08T06:33:26;101036.56;;;6.52;69.88
64053;BME280;50299;49.524;8.536;2023-04-08T06:36:03;101037.78;;;6.70;72.60
64053;BME280;50299;49.524;8.536;2023-04-08T06:38:30;101039.94;;;7.02;67.00
64053;BME280;50299;49.524;8.536;2023-04-08T06:41:05;101040.94;;;6.87;64.35
64053;BME280;50299;49.524;8.536;2023-04-08T06:43:33;101033.78;;;6.86;61.89
64053;BME280;50299;49.524;8.536;2023-04-08T06:46:00;101037.78;;;6.35;65.71
64053;BME280;50299;49.524;8.536;2023-04-08T06:48:26;101041.63;;;5.90;67.41
64053;BME280;50299;49.524;8.536;2023-04-08T06:50:57;101036.16;;;6.34;69.66
64053;BME280;50299;49.524;8.536;2023-04-08T06:53:24;101036.50;;;6.23;64.57
64053;BME280;50299;49.524;8.536;2023-04-08T06:55:51;101033.03;;;6.46;66.21
64053;BME280;50299;49.524;8.536;2023-04-08T06:58:18;101041.53;;;6.50;69.09
64053;BME280;50299;49.524;8.536;2023-04-08T07:00:45;101045.34;;;6.54;61.40
64053;BME280;50299;49.524;8.536;2023-04-08T07:03:12;101041.91;;;6.33;60.44
64053;BME280;50299;49.524;8.536;2023-04-08T07:05:39;101050.22;;;5.73;60.46
64053;BME280;50299;49.524;8.536;2023-04-08T07:08:13;101046.81;;;5.91;60.82
64053;BME280;50299;49.524;8.536;2023-04-08T07:10:40;101047.59;;;6.02;61.63
64053;BME280;50299;49.524;8.536;2023-04-08T07:13:07;101053.97;;;5.87;66.10
64053;BME280;50299;49.524;8.536;2023-04-08T07:15:33;101061.13;;;6.33;59.26
64053;BME280;50299;49.524;8.536;2023-04-08T07:17:59;101063.66;;;6.29;54.85
64053;BME280;50299;49.524;8.536;2023-04-08T07:20:26;101068.28;;;6.68;55.30
64053;BME280;50299;49.524;8.536;2023-04-08T07:22:53;101070.19;;;6.38;54.59
64053;BME280;50299;49.524;8.536;2023-04-08T07:25:19;101069.81;;;5.41;59.72
64053;BME280;50299;49.524;8.536;2023-04-08T07:27:46;101079.66;;;5.52;56.71
64053;BME280;50299;49.524;8.536;2023-04-08T07:30:12;101078.38;;;5.34;57.29
64053;BME280;50299;49.524;8.536;2023-04-08T07:32:39;101073.78;;;4.84;58.27
64053;BME280;50299;49.524;8.536;2023-04-08T07:35:06;101084.09;;;5.43;57.01
64053;BME280;50299;49.524;8.536;2023-04-08T07:37:33;101083.97;;;5.74;55.62
64053;BME280;50299;49.524;8.536;2023-04-08T07:40:00;101085.56;;;4.84;59.15
64053;BME280;50299;49.524;8.536;2023-04-08T07:42:27;101089.66;;;4.92;55.71
64053;BME280;50299;49.524;8.536;2023-04-08T07:44:54;101093.22;;;4.62;57.58
64053;BME280;50299;49.524;8.536;2023-04-08T07:47:20;101086.59;;;5.24;56.11
64053;BME280;50299;49.524;8.536;2023-04-08T07:49:46;101088.72;;;5.42;56.46
64053;BME280;50299;49.524;8.536;2023-04-08T07:52:13;101092.81;;;5.50;56.37
64053;BME280;50299;49.524;8.536;2023-04-08T07:54:41;101096.88;;;5.73;58.98
64053;BME280;50299;49.524;8.536;2023-04-08T07:57:07;101090.50;;;6.37;68.34
64053;BME280;50299;49.524;8.536;2023-04-08T07:59:34;101097.16;;;6.95;66.24
64053;BME280;50299;49.524;8.536;2023-04-08T08:02:01;101096.81;;;7.59;62.31
64053;BME280;50299;49.524;8.536;2023-04-08T08:04:27;101102.19;;;8.12;50.39
64053;BME280;50299;49.524;8.536;2023-04-08T08:06:54;101099.94;;;7.96;54.38
64053;BME280;50299;49.524;8.536;2023-04-08T08:09:23;101094.22;;;8.11;57.86
64053;BME280;50299;49.524;8.536;2023-04-08T08:11:49;101097.72;;;8.54;54.20
64053;BME280;50299;49.524;8.536;2023-04-08T08:14:16;101090.22;;;8.93;45.89
64053;BME280;50299;49.524;8.536;2023-04-08T08:16:42;101097.59;;;7.65;54.84
64053;BME280;50299;49.524;8.536;2023-04-08T08:19:09;101103.44;;;7.29;48.08
64053;BME280;50299;49.524;8.536;2023-04-08T08:21:37;101103.81;;;7.47;46.61
64053;BME280;50299;49.524;8.536;2023-04-08T08:24:04;101105.06;;;7.59;48.68
64053;BME280;50299;49.524;8.536;2023-04-08T08:26:34;101103.91;;;7.66;49.07
64053;BME280;50299;49.524;8.536;2023-04-08T08:29:02;101103.66;;;7.62;50.20
64053;BME280;50299;49.524;8.536;2023-04-08T08:31:29;101102.69;;;7.48;52.95
64053;BME280;50299;49.524;8.536;2023-04-08T08:33:56;101106.25;;;7.53;49.65
64053;BME280;50299;49.524;8.536;2023-04-08T08:36:22;101105.78;;;7.70;49.63
64053;BME280;50299;49.524;8.536;2023-04-08T08:38:49;101112.06;;;7.95;45.17
64053;BME280;50299;49.524;8.536;2023-04-08T08:41:17;101119.53;;;7.94;49.36
64053;BME280;50299;49.524;8.536;2023-04-08T08:43:43;101126.75;;;8.09;50.27
64053;BME280;50299;49.524;8.536;2023-04-08T08:46:10;101123.16;;;8.08;51.81
64053;BME280;50299;49.524;8.536;2023-04-08T08:48:37;101126.00;;;8.22;51.74
64053;BME280;50299;49.524;8.536;2023-04-08T08:51:10;101124.91;;;8.61;49.99
64053;BME280;50299;49.524;8.536;2023-04-08T08:53:37;101118.09;;;8.91;49.33
64053;BME280;50299;49.524;8.536;2023-04-08T08:56:04;101128.75;;;8.98;43.93
64053;BME280;50299;49.524;8.536;2023-04-08T08:58:43;101123.50;;;8.96;44.51
64053;BME280;50299;49.524;8.536;2023-04-08T09:01:32;101130.13;;;8.44;46.62
64053;BME280;50299;49.524;8.536;2023-04-08T09:06:37;101130.50;;;8.56;48.79
64053;BME280;50299;49.524;8.536;2023-04-08T09:09:04;101131.31;;;8.75;48.64
64053;BME280;50299;49.524;8.536;2023-04-08T09:11:38;101136.00;;;8.75;46.05
64053;BME280;50299;49.524;8.536;2023-04-08T09:16:47;101128.72;;;9.44;43.14
64053;BME280;50299;49.524;8.536;2023-04-08T09:19:14;101133.72;;;8.96;40.36
64053;BME280;50299;49.524;8.536;2023-04-08T09:21:41;101130.34;;;8.66;43.70
64053;BME280;50299;49.524;8.536;2023-04-08T09:24:09;101130.47;;;8.37;46.27
64053;BME280;50299;49.524;8.536;2023-04-08T09:26:54;101134.06;;;9.08;45.29
64053;BME280;50299;49.524;8.536;2023-04-08T09:29:24;101127.44;;;8.76;44.46
64053;BME280;50299;49.524;8.536;2023-04-08T09:32:00;101130.56;;;9.49;45.71
64053;BME280;50299;49.524;8.536;2023-04-08T09:34:36;101130.78;;;10.07;51.02
64053;BME280;50299;49.524;8.536;2023-04-08T09:37:02;101128.94;;;10.03;43.73
64053;BME280;50299;49.524;8.536;2023-04-08T09:39:33;101137.00;;;10.27;41.67
64053;BME280;50299;49.524;8.536;2023-04-08T09:42:03;101133.19;;;10.36;44.16
64053;BME280;50299;49.524;8.536;2023-04-08T09:44:32;101132.00;;;10.29;37.99
64053;BME280;50299;49.524;8.536;2023-04-08T09:47:07;101131.25;;;9.27;41.70
64053;BME280;50299;49.524;8.536;2023-04-08T09:49:43;101128.84;;;8.55;41.36
64053;BME280;50299;49.524;8.536;2023-04-08T09:52:29;101132.03;;;8.62;41.39
64053;BME280;50299;49.524;8.536;2023-04-08T09:55:01;101129.00;;;8.82;42.98
64053;BME280;50299;49.524;8.536;2023-04-08T09:57:51;101124.94;;;8.94;47.78
64053;BME280;50299;49.524;8.536;2023-04-08T10:00:24;101124.94;;;9.26;44.08
64053;BME280;50299;49.524;8.536;2023-04-08T10:02:58;101136.66;;;8.85;47.17
64053;BME280;50299;49.524;8.536;2023-04-08T10:05:26;101134.88;;;9.08;49.26
64053;BME280;50299;49.524;8.536;2023-04-08T10:07:54;101129.25;;;9.46;47.56
64053;BME280;50299;49.524;8.536;2023-04-08T10:10:21;101134.38;;;9.94;44.22
64053;BME280;50299;49.524;8.536;2023-04-08T10:12:48;101143.69;;;10.12;43.79
64053;BME280;50299;49.524;8.536;2023-04-08T10:15:22;101135.97;;;10.59;51.71
64053;BME280;50299;49.524;8.536;2023-04-08T10:17:54;101141.78;;;10.49;47.34
64053;BME280;50299;49.524;8.536;2023-04-08T10:23:00;101143.56;;;9.48;45.17
64053;BME280;50299;49.524;8.536;2023-04-08T10:25:31;101142.44;;;9.63;49.42
64053;BME280;50299;49.524;8.536;2023-04-08T10:30:55;101135.22;;;9.21;43.84
64053;BME280;50299;49.524;8.536;2023-04-08T10:36:11;101146.94;;;9.59;44.22
64053;BME280;50299;49.524;8.536;2023-04-08T10:38:38;101150.16;;;9.20;51.48
64053;BME280;50299;49.524;8.536;2023-04-08T10:41:05;101141.81;;;9.38;42.37
64053;BME280;50299;49.524;8.536;2023-04-08T10:43:32;101152.63;;;9.21;45.29
64053;BME280;50299;49.524;8.536;2023-04-08T10:45:59;101150.63;;;9.08;42.96
64053;BME280;50299;49.524;8.536;2023-04-08T10:48:25;101149.00;;;9.21;41.11
64053;BME280;50299;49.524;8.536;2023-04-08T10:50:56;101148.06;;;8.79;43.65
64053;BME280;50299;49.524;8.536;2023-04-08T10:53:27;101155.19;;;8.99;43.66
64053;BME280;50299;49.524;8.536;2023-04-08T10:56:02;101158.66;;;9.04;49.09
64053;BME280;50299;49.524;8.536;2023-04-08T10:58:29;101155.19;;;9.31;46.69
64053;BME280;50299;49.524;8.536;2023-04-08T11:01:04;101153.88;;;9.43;43.38
64053;BME280;50299;49.524;8.536;2023-04-08T11:03:33;101161.41;;;8.53;42.57
64053;BME280;50299;49.524;8.536;2023-04-08T11:06:01;101156.75;;;9.05;46.85
64053;BME280;50299;49.524;8.536;2023-04-08T11:08:31;101156.75;;;9.65;40.50
64053;BME280;50299;49.524;8.536;2023-04-08T11:10:59;101143.44;;;8.93;44.79
64053;BME280;50299;49.524;8.536;2023-04-08T11:13:29;101150.28;;;8.58;43.79
64053;BME280;50299;49.524;8.536;2023-04-08T11:15:58;101143.81;;;8.86;47.83
64053;BME280;50299;49.524;8.536;2023-04-08T11:18:25;101149.88;;;9.35;42.54
64053;BME280;50299;49.524;8.536;2023-04-08T11:20:52;101148.06;;;8.79;44.04
64053;BME280;50299;49.524;8.536;2023-04-08T11:23:19;101152.09;;;9.19;49.94
64053;BME280;50299;49.524;8.536;2023-04-08T11:25:48;101145.44;;;9.80;41.94
64053;BME280;50299;49.524;8.536;2023-04-08T11:28:16;101145.66;;;9.84;45.50
64053;BME280;50299;49.524;8.536;2023-04-08T11:30:43;101146.88;;;9.92;41.56
64053;BME280;50299;49.524;8.536;2023-04-08T11:33:11;101133.94;;;10.28;38.54
64053;BME280;50299;49.524;8.536;2023-04-08T11:35:42;101137.59;;;9.41;42.21
64053;BME280;50299;49.524;8.536;2023-04-08T11:38:09;101140.50;;;9.03;43.52
64053;BME280;50299;49.524;8.536;2023-04-08T11:40:37;101142.41;;;8.70;43.54
64053;BME280;50299;49.524;8.536;2023-04-08T11:43:11;101137.97;;;9.07;46.52
64053;BME280;50299;49.524;8.536;2023-04-08T11:45:40;101127.47;;;9.23;47.31
64053;BME280;50299;49.524;8.536;2023-04-08T11:48:09;101129.31;;;9.27;47.83
64053;BME280;50299;49.524;8.536;2023-04-08T11:50:36;101130.94;;;9.28;45.45
64053;BME280;50299;49.524;8.536;2023-04-08T11:53:03;101138.97;;;9.99;44.64
64053;BME280;50299;49.524;8.536;2023-04-08T11:55:30;101138.25;;;10.07;45.91
64053;BME280;50299;49.524;8.536;2023-04-08T11:58:02;101128.03;;;9.94;45.92
64053;BME280;50299;49.524;8.536;2023-04-08T12:00:29;101137.53;;;10.15;44.39
64053;BME280;50299;49.524;8.536;2023-04-08T12:02:56;101129.97;;;9.52;45.78
64053;BME280;50299;49.524;8.536;2023-04-08T12:05:23;101135.22;;;9.81;49.19
64053;BME280;50299;49.524;8.536;2023-04-08T12:07:49;101130.44;;;10.36;44.40
64053;BME280;50299;49.524;8.536;2023-04-08T12:10:15;101123.31;;;10.44;43.75
64053;BME280;50299;49.524;8.536;2023-04-08T12:12:42;101118.75;;;10.40;46.96
64053;BME280;50299;49.524;8.536;2023-04-08T12:15:09;101119.47;;;10.68;48.60
64053;BME280;50299;49.524;8.536;2023-04-08T12:17:36;101116.81;;;10.63;40.10
64053;BME280;50299;49.524;8.536;2023-04-08T12:20:07;101127.41;;;9.69;44.72
64053;BME280;50299;49.524;8.536;2023-04-08T12:22:33;101128.03;;;9.94;43.56
64053;BME280;50299;49.524;8.536;2023-04-08T12:25:00;101127.31;;;9.47;46.33
64053;BME280;50299;49.524;8.536;2023-04-08T12:27:29;101133.44;;;9.57;45.61
64053;BME280;50299;49.524;8.536;2023-04-08T12:29:59;101133.56;;;10.44;43.74
64053;BME280;50299;49.524;8.536;2023-04-08T12:32:25;101134.16;;;10.54;41.17
64053;BME280;50299;49.524;8.536;2023-04-08T12:34:52;101122.28;;;10.18;39.16
64053;BME280;50299;49.524;8.536;2023-04-08T12:37:18;101121.63;;;9.24;43.00
64053;BME280;50299;49.524;8.536;2023-04-08T12:39:46;101124.88;;;9.59;49.50
64053;BME280;50299;49.524;8.536;2023-04-08T12:42:13;101120.47;;;9.99;44.21
64053;BME280;50299;49.524;8.536;2023-04-08T12:44:42;101118.84;;;9.98;42.83
64053;BME280;50299;49.524;8.536;2023-04-08T12:47:08;101115.47;;;10.38;45.02
64053;BME280;50299;49.524;8.536;2023-04-08T12:49:35;101105.50;;;10.50;41.68
64053;BME280;50299;49.524;8.536;2023-04-08T12:52:14;101116.44;;;10.19;44.61
64053;BME280;50299;49.524;8.536;2023-04-08T12:54:41;101119.81;;;10.89;38.87
64053;BME280;50299;49.524;8.536;2023-04-08T12:57:07;101124.53;;;10.16;39.40
64053;BME280;50299;49.524;8.536;2023-04-08T12:59:34;101117.78;;;9.53;45.00
64053;BME280;50299;49.524;8.536;2023-04-08T13:02:00;101111.56;;;9.61;44.73
64053;BME280;50299;49.524;8.536;2023-04-08T13:04:26;101110.81;;;10.24;54.77
64053;BME280;50299;49.524;8.536;2023-04-08T13:06:53;101103.31;;;10.61;42.51
64053;BME280;50299;49.524;8.536;2023-04-08T13:09:20;101106.72;;;11.03;39.87
64053;BME280;50299;49.524;8.536;2023-04-08T13:11:48;101091.59;;;10.78;43.21
64053;BME280;50299;49.524;8.536;2023-04-08T13:14:15;101100.03;;;10.59;44.19
64053;BME280;50299;49.524;8.536;2023-04-08T13:16:42;101100.72;;;10.65;42.77